Погода Эль-Авамийяна неделю

Табук, Саудовская Аравия

15 - 21 июля
  • 15июля
    Сегодня
    +29°
    +44°
    Ясно и безоблачно
    ВремяПогодаТемператураВлажностьДавлениеВетер, м/сВероятность осадков
    00:00Ясно и безоблачно+34°C31 %745 мм4.3 м/с0 %
    03:00Ясно и безоблачно+33°C38 %745 мм5.5 м/с0 %
    06:00Ясно и безоблачно+33°C36 %747 мм5.2 м/с0 %
    09:00Ясно и безоблачно+40°C16 %747 мм5.2 м/с0 %
    12:00Ясно и безоблачно+43°C13 %747 мм7.2 м/с0 %
    15:00Ясно и безоблачно+42°C15 %746 мм7.5 м/с0 %
    18:00Ясно и безоблачно+39°C31 %746 мм4.5 м/с0 %
    21:00Ясно и безоблачно+35°C37 %747 мм3.0 м/с0 %
  • 16июля
    Вторник
    +30°
    +43°
    Ясно и безоблачно
    ВремяПогодаТемператураВлажностьДавлениеВетер, м/сВероятность осадков
    00:00Ясно и безоблачно+32°C32 %746 мм3.4 м/с0 %
    03:00Ясно и безоблачно+30°C29 %746 мм3.4 м/с0 %
    06:00Ясно и безоблачно+31°C23 %747 мм3.6 м/с0 %
    09:00Ясно и безоблачно+40°C15 %748 мм5.4 м/с0 %
    12:00Ясно и безоблачно+43°C26 %747 мм8.3 м/с0 %
    15:00Ясно и безоблачно+41°C36 %746 мм7.2 м/с0 %
    18:00Ясно и безоблачно+39°C45 %746 мм5.2 м/с0 %
    21:00Ясно и безоблачно+34°C65 %747 мм2.1 м/с0 %
  • 17июля
    Среда
    +33°
    +44°
    Ясно и безоблачно
    ВремяПогодаТемператураВлажностьДавлениеВетер, м/сВероятность осадков
    00:00Ясно и безоблачно+32°C65 %747 мм2.0 м/с0 %
    03:00Ясно и безоблачно+31°C55 %746 мм3.7 м/с0 %
    06:00Ясно и безоблачно+31°C43 %748 мм3.5 м/с0 %
    09:00Ясно и безоблачно+40°C22 %748 мм4.7 м/с0 %
    12:00Ясно и безоблачно+44°C21 %748 мм7.7 м/с0 %
    15:00Ясно и безоблачно+43°C26 %747 мм7.5 м/с0 %
    18:00Ясно и безоблачно+40°C37 %746 мм4.7 м/с0 %
    21:00Ясно и безоблачно+36°C45 %747 мм3.0 м/с0 %
  • 18июля
    Четверг
    +32°
    +44°
    Ясно и безоблачно
    ВремяПогодаТемператураВлажностьДавлениеВетер, м/сВероятность осадков
    00:00Практически безоблачно+34°C39 %746 мм4.2 м/с0 %
    03:00Практически безоблачно+34°C28 %745 мм5.7 м/с0 %
    06:00Ясно и безоблачно+34°C24 %746 мм6.6 м/с0 %
    09:00Ясно и безоблачно+41°C27 %747 мм8.7 м/с0 %
    12:00Ясно и безоблачно+44°C21 %746 мм9.5 м/с0 %
    15:00Ясно и безоблачно+43°C22 %745 мм8.0 м/с0 %
    18:00Ясно и безоблачно+41°C24 %745 мм5.4 м/с0 %
    21:00Ясно и безоблачно+37°C25 %745 мм5.3 м/с0 %
  • 19июля
    Пятница
    +31°
    +45°
    Ясно и безоблачно
    ВремяПогодаТемператураВлажностьДавлениеВетер, м/сВероятность осадков
    00:00Ясно и безоблачно+35°C32 %744 мм6.6 м/с0 %
    03:00Ясно и безоблачно+34°C16 %744 мм6.6 м/с0 %
    06:00Ясно и безоблачно+34°C19 %745 мм6.3 м/с0 %
    09:00Ясно и безоблачно+42°C20 %745 мм8.4 м/с0 %
    12:00Ясно и безоблачно+45°C14 %745 мм9.5 м/с0 %
    15:00Ясно и безоблачно+44°C16 %744 мм7.4 м/с0 %
    18:00Ясно и безоблачно+39°C33 %743 мм3.5 м/с0 %
    21:00Ясно и безоблачно+34°C40 %744 мм1.5 м/с0 %
Мы используем cookies
Соглашаюсь